Goodison, Michigan
Current Conditions -  °F | °C
As of 5:35 PM on Monday 26 Jan 2015 (Local Time) from KVLL Reporting Station
Clear Clear  
Wind Chill: 17°   Ceiling: Unl
Heat Index: 25°   Visibility: 10mi
Dew Point: 10°   Wind: 7mph
Humidity: 52%   Direction: 30°NNE
Pressure: 29.94"   Gusts: NA
Location:  42.7216°N, 83.1464°W
Report Text: KVLL 262235Z AUTO 03006KT 10SM CLR M04/M12 A2994 RMK AO2 T10401125
Loading
Personal Weather Stations






























Interactive Weather Map New forecast layout! Learn more

10-Day Weather Forecast

Advertisements
Track Severe Weather on mobile